Terminal Aerodrome Forecast
Issued by NWS

Home | Current Version | Previous Version | Text Only | Print | Product List | Glossary On
Versions: 1 2 3 4 5 6 7 8 9 10 11 12 13 14 15 16 17 18
000
FTUS45 KVEF 291100
TAFEED
TAF
KEED 291120Z 2912/3012 34008KT P6SM OVC150
     FM291800 01013KT P6SM OVC150
     FM300200 35006KT P6SM BKN100 OVC150
     FM300600 34009KT P6SM SCT050 OVC080 PROB30 3006/3012 -SHRA
      BKN050=

USA.gov is the U.S. government's official web portal to all federal, state and local government web resources and services.